createdAt,value
2022-11-21T00:01:38.601Z,97416.97
2022-11-21T00:04:42.648Z,97418.06
2022-11-21T00:07:45.951Z,97412.97
2022-11-21T00:10:48.939Z,97413.22
2022-11-21T00:13:51.659Z,97407.41
2022-11-21T00:16:57.335Z,97391.38
2022-11-21T00:20:01.629Z,97387.38
2022-11-21T00:23:04.797Z,97383.38
2022-11-21T00:26:08.374Z,97383.91
2022-11-21T00:29:11.145Z,97396.72
2022-11-21T00:32:13.769Z,97390.84
2022-11-21T00:35:18.295Z,97382.88
2022-11-21T00:38:20.997Z,97378.59
2022-11-21T00:41:23.891Z,97380.47
2022-11-21T00:44:26.753Z,97379.16
2022-11-21T00:47:29.568Z,97368.75
2022-11-21T00:50:33.731Z,97362.09
2022-11-21T00:53:36.431Z,97358.66
2022-11-21T00:56:39.107Z,97353.03
2022-11-21T00:59:41.784Z,97356.00
2022-11-21T01:02:44.437Z,97353.88
2022-11-21T01:05:48.419Z,97354.41
2022-11-21T01:08:51.111Z,97363.19
2022-11-21T01:11:53.751Z,97361.06
2022-11-21T01:14:56.396Z,97355.19
2022-11-21T01:17:59.066Z,97354.41
2022-11-21T01:21:05.085Z,97348.81
2022-11-21T01:24:08.046Z,97354.66
2022-11-21T01:27:10.710Z,97354.41
2022-11-21T01:30:14.524Z,97353.06
2022-11-21T01:33:17.227Z,97352.53
2022-11-21T01:36:23.308Z,97345.88
2022-11-21T01:39:26.120Z,97356.28
2022-11-21T01:42:28.809Z,97352.53
2022-11-21T01:45:56.044Z,97338.69
2022-11-21T01:49:03.815Z,97336.06
2022-11-21T01:52:10.685Z,97331.25
2022-11-21T01:55:13.315Z,97338.69
2022-11-21T01:58:16.866Z,97336.56
2022-11-21T02:01:19.916Z,97343.53
2022-11-21T02:04:26.855Z,97333.94
2022-11-21T02:07:35.842Z,97332.88
2022-11-21T02:10:42.660Z,97325.94
2022-11-21T02:13:45.539Z,97324.63
2022-11-21T02:16:48.466Z,97321.41
2022-11-21T02:19:55.105Z,97336.06
2022-11-21T02:23:05.751Z,97328.59
2022-11-21T02:26:10.478Z,97333.94
2022-11-21T02:29:13.208Z,97326.19
2022-11-21T02:32:23.060Z,97331.53
2022-11-21T02:35:26.030Z,97322.72
2022-11-21T02:38:31.991Z,97319.53
2022-11-21T02:41:38.735Z,97321.69
2022-11-21T02:44:47.283Z,97315.84
2022-11-21T02:47:52.210Z,97320.34
2022-11-21T02:50:55.010Z,97318.50
2022-11-21T02:53:57.792Z,97311.03
2022-11-21T02:57:02.294Z,97298.50
2022-11-21T03:00:05.951Z,97301.72
2022-11-21T03:03:08.845Z,97303.56
2022-11-21T03:06:11.580Z,97301.97
2022-11-21T03:09:14.296Z,97297.47
2022-11-21T03:12:18.379Z,97290.56
2022-11-21T03:15:21.083Z,97285.47
2022-11-21T03:18:23.884Z,97288.16
2022-11-21T03:21:26.668Z,97282.03
2022-11-21T03:24:29.700Z,97278.56
2022-11-21T03:27:34.001Z,97276.44
2022-11-21T03:30:36.735Z,97292.41
2022-11-21T03:33:39.618Z,97281.50
2022-11-21T03:36:42.351Z,97287.38
2022-11-21T03:39:45.052Z,97280.97
2022-11-21T03:42:49.261Z,97283.91
2022-11-21T03:45:51.992Z,97284.69
2022-11-21T03:48:54.916Z,97283.91
2022-11-21T03:51:57.779Z,97278.59
2022-11-21T03:55:00.501Z,97275.13
2022-11-21T03:58:04.708Z,97279.09
2022-11-21T04:01:07.501Z,97276.97
2022-11-21T04:04:10.206Z,97280.16
2022-11-21T04:07:13.051Z,97280.41
2022-11-21T04:10:16.558Z,97271.38
2022-11-21T04:13:21.793Z,97274.84
2022-11-21T04:16:24.529Z,97272.69
2022-11-21T04:19:27.358Z,97269.50
2022-11-21T04:22:30.110Z,97272.69
2022-11-21T04:25:33.378Z,97277.47
2022-11-21T04:28:38.199Z,97280.63
2022-11-21T04:31:41.038Z,97274.00
2022-11-21T04:34:43.752Z,97280.09
2022-11-21T04:37:46.773Z,97273.44
2022-11-21T04:40:49.522Z,97275.88
2022-11-21T04:43:59.578Z,97273.75
2022-11-21T04:47:17.929Z,97272.16
2022-11-21T04:50:32.942Z,97268.69
2022-11-21T04:53:43.310Z,97276.94
2022-11-21T04:56:49.325Z,97275.88
2022-11-21T05:00:00.559Z,97274.53
2022-11-21T05:03:24.491Z,97268.72
2022-11-21T05:06:37.310Z,97275.09
2022-11-21T05:09:51.886Z,97272.69
2022-11-21T05:13:19.932Z,97276.69
2022-11-21T05:16:36.254Z,97273.75
2022-11-21T05:19:50.200Z,97265.75
2022-11-21T05:22:57.725Z,97271.06
2022-11-21T05:26:10.826Z,97272.13
2022-11-21T05:29:25.192Z,97278.00
2022-11-21T05:32:45.479Z,97284.94
2022-11-21T05:35:53.612Z,97279.06
2022-11-21T05:39:06.348Z,97286.53
2022-11-21T05:42:12.985Z,97287.34
2022-11-21T05:45:21.059Z,97290.78
2022-11-21T05:48:35.276Z,97289.75
2022-11-21T05:51:53.021Z,97297.44
2022-11-21T05:55:03.970Z,97293.19
2022-11-21T05:58:18.442Z,97293.47
2022-11-21T06:01:42.113Z,97303.84
2022-11-21T06:04:54.142Z,97293.44
2022-11-21T06:08:04.972Z,97292.13
2022-11-21T06:11:15.848Z,97293.19
2022-11-21T06:14:30.121Z,97295.31
2022-11-21T06:17:40.871Z,97286.00
2022-11-21T06:20:53.454Z,97296.66
2022-11-21T06:24:09.700Z,97294.50
2022-11-21T06:27:30.416Z,97297.94
2022-11-21T06:30:42.018Z,97301.94
2022-11-21T06:33:54.993Z,97303.53
2022-11-21T06:37:05.971Z,97301.41
2022-11-21T06:40:23.009Z,97300.84
2022-11-21T06:43:39.142Z,97289.66
2022-11-21T06:47:17.118Z,97306.19
2022-11-21T06:50:48.533Z,97306.19
2022-11-21T06:54:16.291Z,97310.44
2022-11-21T06:57:27.201Z,97315.81
2022-11-21T07:00:40.348Z,97311.00
2022-11-21T07:04:04.959Z,97309.94
2022-11-21T07:07:12.811Z,97312.09
2022-11-21T07:10:19.905Z,97311.56
2022-11-21T07:13:25.265Z,97315.31
2022-11-21T07:16:33.390Z,97309.44
2022-11-21T07:19:42.366Z,97308.63
2022-11-21T07:22:49.188Z,97309.16
2022-11-21T07:26:02.130Z,97311.00
2022-11-21T07:29:08.418Z,97306.72
2022-11-21T07:32:21.245Z,97299.25
2022-11-21T07:35:26.562Z,97303.00
2022-11-21T07:38:32.528Z,97297.13
2022-11-21T07:41:37.658Z,97293.13
2022-11-21T07:44:42.499Z,97294.19
2022-11-21T07:48:01.380Z,97296.59
2022-11-21T07:51:08.150Z,97288.84
2022-11-21T07:54:12.823Z,97296.06
2022-11-21T07:57:19.757Z,97304.03
2022-11-21T08:00:25.533Z,97308.50
2022-11-21T08:03:29.858Z,97305.50
2022-11-21T08:06:35.232Z,97306.91
2022-11-21T08:09:39.946Z,97310.88
2022-11-21T08:12:47.625Z,97322.63
2022-11-21T08:15:52.028Z,97311.41
2022-11-21T08:18:57.827Z,97297.25
2022-11-21T08:22:03.047Z,97300.69
2022-11-21T08:25:09.557Z,97289.78
2022-11-21T08:28:16.179Z,97293.75
2022-11-21T08:31:19.697Z,97290.59
2022-11-21T08:34:23.897Z,97290.00
2022-11-21T08:37:30.714Z,97291.59
2022-11-21T08:40:36.753Z,97285.66
2022-11-21T08:43:44.799Z,97279.47
2022-11-21T08:46:49.887Z,97278.13
2022-11-21T08:49:53.413Z,97282.91
2022-11-21T08:53:05.394Z,97276.22
2022-11-21T08:56:12.013Z,97278.75
2022-11-21T08:59:17.623Z,97263.31
2022-11-21T09:02:35.972Z,97279.22
2022-11-21T09:05:41.848Z,97270.88
2022-11-21T09:08:48.571Z,97266.28
2022-11-21T09:11:53.652Z,97262.28
2022-11-21T09:15:16.353Z,97261.41
2022-11-21T09:18:20.309Z,97251.19
2022-11-21T09:21:26.711Z,97252.09
2022-11-21T09:24:33.994Z,97257.63
2022-11-21T09:27:38.410Z,97257.84
2022-11-21T09:30:47.400Z,97254.38
2022-11-21T09:33:54.949Z,97246.97
2022-11-21T09:37:02.191Z,97250.31
2022-11-21T09:40:11.912Z,97253.44
2022-11-21T09:43:49.692Z,97258.84
2022-11-21T09:47:05.089Z,97259.41
2022-11-21T09:50:24.577Z,97249.53
2022-11-21T09:53:34.072Z,97255.28
2022-11-21T09:56:43.960Z,97241.00
2022-11-21T09:59:49.585Z,97239.66
2022-11-21T10:02:56.616Z,97224.84
2022-11-21T10:06:05.643Z,97213.81
2022-11-21T10:09:20.102Z,97198.09
2022-11-21T10:12:48.663Z,97202.78
2022-11-21T10:16:02.792Z,97191.41
2022-11-21T10:19:26.358Z,97186.38
2022-11-21T10:22:43.482Z,97182.75
2022-11-21T10:25:57.752Z,97179.47
2022-11-21T10:29:06.817Z,97169.22
2022-11-21T10:32:23.366Z,97155.25
2022-11-21T10:35:39.237Z,97144.53
2022-11-21T10:38:46.918Z,97146.88
2022-11-21T10:41:58.328Z,97136.00
2022-11-21T10:45:20.297Z,97137.22
2022-11-21T10:48:25.398Z,97137.94
2022-11-21T10:51:44.352Z,97136.50
2022-11-21T10:55:09.031Z,97132.47
2022-11-21T10:58:20.915Z,97129.66
2022-11-21T11:01:31.478Z,97123.16
2022-11-21T11:04:45.805Z,97116.38
2022-11-21T11:08:05.263Z,97110.53
2022-11-21T11:11:15.365Z,97103.44
2022-11-21T11:14:33.387Z,97082.25
2022-11-21T11:17:37.556Z,97077.19
2022-11-21T11:20:44.130Z,97081.25
2022-11-21T11:23:51.337Z,97075.97
2022-11-21T11:27:01.487Z,97065.91
2022-11-21T11:30:10.306Z,97059.28
2022-11-21T11:33:36.328Z,97048.41
2022-11-21T11:36:59.260Z,97046.22
2022-11-21T11:40:16.503Z,97035.31
2022-11-21T11:43:53.355Z,97028.59
2022-11-21T11:47:22.758Z,97034.38
2022-11-21T11:50:33.339Z,97026.50
2022-11-21T11:53:43.855Z,97024.56
2022-11-21T11:56:50.072Z,97011.25
2022-11-21T12:00:05.140Z,97017.56
2022-11-21T12:03:18.704Z,97003.63
2022-11-21T12:06:44.985Z,97000.50
2022-11-21T12:10:00.447Z,96996.19
2022-11-21T12:13:13.080Z,96995.09
2022-11-21T12:16:18.163Z,96988.56
2022-11-21T12:19:24.685Z,96979.44
2022-11-21T12:22:28.566Z,96974.59
2022-11-21T12:25:39.609Z,96966.03
2022-11-21T12:29:02.380Z,96965.50
2022-11-21T12:32:23.075Z,96953.16
2022-11-21T12:35:49.984Z,96956.59
2022-11-21T12:39:16.578Z,96939.16
2022-11-21T12:42:47.228Z,96925.78
2022-11-21T12:45:56.283Z,96926.16
2022-11-21T12:49:26.936Z,96921.66
2022-11-21T12:52:52.162Z,96902.78
2022-11-21T12:56:01.268Z,96897.63
2022-11-21T12:59:05.131Z,96893.13
2022-11-21T13:02:20.049Z,96887.50
2022-11-21T13:05:29.457Z,96877.31
2022-11-21T13:08:36.629Z,96866.38
2022-11-21T13:11:59.631Z,96871.63
2022-11-21T13:15:14.984Z,96861.53
2022-11-21T13:18:24.209Z,96865.50
2022-11-21T13:21:42.215Z,96852.28
2022-11-21T13:24:59.486Z,96856.22
2022-11-21T13:28:35.453Z,96861.03
2022-11-21T13:31:38.958Z,96852.13
2022-11-21T13:34:42.991Z,96843.38
2022-11-21T13:38:01.591Z,96826.13
2022-11-21T13:41:21.996Z,96831.44
2022-11-21T13:44:30.704Z,96830.69
2022-11-21T13:48:05.740Z,96822.69
2022-11-21T13:51:26.008Z,96816.63
2022-11-21T13:54:57.531Z,96816.69
2022-11-21T13:58:11.642Z,96812.84
2022-11-21T14:01:37.478Z,96811.66
2022-11-21T14:05:05.285Z,96803.25
2022-11-21T14:08:20.244Z,96793.91
2022-11-21T14:11:33.901Z,96794.97
2022-11-21T14:14:41.327Z,96790.97
2022-11-21T14:17:47.138Z,96794.91
2022-11-21T14:20:53.871Z,96780.34
2022-11-21T14:23:59.697Z,96781.63
2022-11-21T14:27:06.904Z,96773.84
2022-11-21T14:30:31.873Z,96769.22
2022-11-21T14:33:36.175Z,96765.59
2022-11-21T14:36:40.430Z,96767.59
2022-11-21T14:39:45.501Z,96766.34
2022-11-21T14:42:48.859Z,96760.59
2022-11-21T14:45:51.531Z,96761.19
2022-11-21T14:48:57.189Z,96740.19
2022-11-21T14:52:05.100Z,96728.03
2022-11-21T14:55:32.223Z,96725.94
2022-11-21T14:58:35.845Z,96724.78
2022-11-21T15:01:42.040Z,96720.44
2022-11-21T15:04:49.475Z,96709.38
2022-11-21T15:08:01.184Z,96706.31
2022-11-21T15:11:18.400Z,96683.16
2022-11-21T15:14:28.977Z,96671.53
2022-11-21T15:17:32.513Z,96663.69
2022-11-21T15:20:35.229Z,96655.41
2022-11-21T15:23:40.242Z,96639.91
2022-11-21T15:26:44.267Z,96633.66
2022-11-21T15:29:46.961Z,96617.06
2022-11-21T15:33:06.398Z,96614.03
2022-11-21T15:36:14.063Z,96622.38
2022-11-21T15:39:22.593Z,96608.19
2022-11-21T15:42:39.072Z,96591.16
2022-11-21T15:45:42.482Z,96576.72
2022-11-21T15:48:49.379Z,96572.84
2022-11-21T15:52:06.577Z,96570.97
2022-11-21T15:55:17.986Z,96565.59
2022-11-21T15:58:22.233Z,96560.44
2022-11-21T16:01:26.681Z,96552.72
2022-11-21T16:04:29.503Z,96547.56
2022-11-21T16:07:32.409Z,96537.97
2022-11-21T16:10:36.023Z,96542.06
2022-11-21T16:13:40.008Z,96538.38
2022-11-21T16:16:44.200Z,96529.97
2022-11-21T16:19:46.927Z,96519.53
2022-11-21T16:22:49.966Z,96527.53
2022-11-21T16:25:54.259Z,96522.38
2022-11-21T16:28:59.340Z,96516.81
2022-11-21T16:32:02.293Z,96506.41
2022-11-21T16:35:05.717Z,96492.56
2022-11-21T16:38:08.987Z,96472.22
2022-11-21T16:41:11.686Z,96471.59
2022-11-21T16:44:21.529Z,96473.59
2022-11-21T16:47:25.116Z,96487.47
2022-11-21T16:50:29.022Z,96488.84
2022-11-21T16:53:32.686Z,96479.03
2022-11-21T16:56:37.327Z,96487.66
2022-11-21T16:59:42.434Z,96467.97
2022-11-21T17:02:47.125Z,96472.78
2022-11-21T17:05:58.860Z,96472.56
2022-11-21T17:09:02.989Z,96460.47
2022-11-21T17:12:07.754Z,96450.75
2022-11-21T17:15:16.183Z,96442.22
2022-11-21T17:18:21.223Z,96443.44
2022-11-21T17:21:27.002Z,96445.75
2022-11-21T17:24:34.112Z,96430.47
2022-11-21T17:27:38.787Z,96428.84
2022-11-21T17:30:46.533Z,96434.75
2022-11-21T17:33:52.105Z,96451.06
2022-11-21T17:36:57.252Z,96440.44
2022-11-21T17:40:04.664Z,96406.84
2022-11-21T17:43:11.543Z,96374.28
2022-11-21T17:46:19.666Z,96380.72
2022-11-21T17:49:24.573Z,96396.75
2022-11-21T17:52:30.208Z,96410.75
2022-11-21T17:55:35.046Z,96411.19
2022-11-21T17:58:40.575Z,96396.41
2022-11-21T18:01:49.410Z,96393.81
2022-11-21T18:04:55.190Z,96394.53
2022-11-21T18:08:00.557Z,96374.19
2022-11-21T18:11:05.285Z,96380.25
2022-11-21T18:14:11.277Z,96375.69
2022-11-21T18:17:18.124Z,96384.09
2022-11-21T18:20:24.667Z,96385.09
2022-11-21T18:23:30.343Z,96365.53
2022-11-21T18:26:38.662Z,96366.81
2022-11-21T18:29:43.658Z,96367.50
2022-11-21T18:32:52.407Z,96382.13
2022-11-21T18:35:57.153Z,96390.63
2022-11-21T18:39:08.868Z,96380.84
2022-11-21T18:42:16.856Z,96380.16
2022-11-21T18:45:21.688Z,96376.00
2022-11-21T18:48:28.561Z,96376.00
2022-11-21T18:51:34.375Z,96378.47
2022-11-21T18:54:39.194Z,96357.16
2022-11-21T18:57:44.025Z,96361.78
2022-11-21T19:00:48.708Z,96353.59
2022-11-21T19:03:55.580Z,96354.19
2022-11-21T19:07:01.249Z,96351.94
2022-11-21T19:10:35.624Z,96341.75
2022-11-21T19:13:33.125Z,96340.47
2022-11-21T19:16:37.690Z,96335.44
2022-11-21T19:19:44.862Z,96331.88
2022-11-21T19:22:53.334Z,96323.38
2022-11-21T19:26:03.256Z,96323.38
2022-11-21T19:29:08.101Z,96314.50
2022-11-21T19:32:12.784Z,96314.50
2022-11-21T19:35:19.676Z,96316.38
2022-11-21T19:38:24.944Z,96313.13
2022-11-21T19:41:31.126Z,96318.16
2022-11-21T19:44:36.224Z,96314.19
2022-11-21T19:47:41.601Z,96305.53
2022-11-21T19:50:58.632Z,96313.31
2022-11-21T19:54:04.201Z,96307.88
2022-11-21T19:57:13.696Z,96305.41
2022-11-21T20:00:22.541Z,96303.34
2022-11-21T20:03:27.404Z,96306.41
2022-11-21T20:06:36.607Z,96306.41
2022-11-21T20:09:41.519Z,96300.56
2022-11-21T20:12:46.919Z,96300.38
2022-11-21T20:15:51.568Z,96303.94
2022-11-21T20:18:58.107Z,96309.66
2022-11-21T20:22:04.799Z,96310.97
2022-11-21T20:25:09.815Z,96317.16
2022-11-21T20:28:13.392Z,96315.50
2022-11-21T20:31:18.622Z,96313.31
2022-11-21T20:34:23.163Z,96314.69
2022-11-21T20:37:31.081Z,96314.63
2022-11-21T20:40:35.217Z,96313.81
2022-11-21T20:44:20.089Z,96320.53
2022-11-21T20:47:02.904Z,96313.13
2022-11-21T20:50:07.745Z,96313.41
2022-11-21T20:53:50.874Z,96304.41
2022-11-21T20:56:43.889Z,96302.06
2022-11-21T20:59:49.158Z,96299.59
2022-11-21T21:02:54.064Z,96287.56
2022-11-21T21:06:05.592Z,96296.34
2022-11-21T21:09:13.422Z,96288.22
2022-11-21T21:12:17.944Z,96282.91
2022-11-21T21:15:22.946Z,96288.63
2022-11-21T21:18:27.107Z,96286.75
2022-11-21T21:21:32.047Z,96292.88
2022-11-21T21:24:37.992Z,96288.34
2022-11-21T21:27:42.348Z,96279.94
2022-11-21T21:30:47.358Z,96274.19
2022-11-21T21:33:52.108Z,96277.94
2022-11-21T21:36:56.919Z,96279.50
2022-11-21T21:40:03.387Z,96278.13
2022-11-21T21:43:07.875Z,96277.66
2022-11-21T21:46:13.986Z,96278.72
2022-11-21T21:49:21.106Z,96263.22
2022-11-21T21:52:25.384Z,96262.63
2022-11-21T21:55:32.440Z,96258.47
2022-11-21T21:58:38.403Z,96250.75
2022-11-21T22:01:43.888Z,96265.84
2022-11-21T22:04:51.851Z,96257.56
2022-11-21T22:07:56.264Z,96267.94
2022-11-21T22:11:05.155Z,96276.72
2022-11-21T22:14:13.830Z,96278.78
2022-11-21T22:17:18.849Z,96278.78
2022-11-21T22:20:23.000Z,96277.69
2022-11-21T22:23:27.528Z,96280.34
2022-11-21T22:26:33.373Z,96281.44
2022-11-21T22:29:39.871Z,96290.06
2022-11-21T22:32:44.357Z,96278.69
2022-11-21T22:35:48.519Z,96282.34
2022-11-21T22:38:55.140Z,96280.47
2022-11-21T22:42:01.110Z,96280.78
2022-11-21T22:45:05.272Z,96282.06
2022-11-21T22:48:08.636Z,96274.66
2022-11-21T22:51:14.628Z,96278.78
2022-11-21T22:54:18.365Z,96276.91
2022-11-21T22:57:24.282Z,96274.53
2022-11-21T23:00:27.366Z,96269.78
2022-11-21T23:03:32.132Z,96270.28
2022-11-21T23:06:35.596Z,96273.56
2022-11-21T23:09:41.689Z,96267.03
2022-11-21T23:12:48.472Z,96264.38
2022-11-21T23:15:51.950Z,96256.38
2022-11-21T23:18:56.788Z,96250.28
2022-11-21T23:22:00.344Z,96238.63
2022-11-21T23:25:03.547Z,96226.38
2022-11-21T23:28:09.238Z,96209.47
2022-11-21T23:31:12.368Z,96221.84
2022-11-21T23:34:15.626Z,96236.28
2022-11-21T23:37:18.885Z,96236.06
2022-11-21T23:40:22.341Z,96238.44
2022-11-21T23:43:26.766Z,96232.81
2022-11-21T23:46:30.722Z,96248.50
2022-11-21T23:49:34.738Z,96237.34
2022-11-21T23:52:37.922Z,96242.50
2022-11-21T23:55:41.438Z,96242.19
2022-11-21T23:58:46.335Z,96244.53
